Time;durP1;ratioP1;P1;durP2;ratioP2;P2;SDS_P1;SDS_P2;PMS_P1;PMS_P2;Temp;Humidity;BMP_temperature;BMP_pressure;BME280_temperature;BME280_humidity;BME280_pressure;Samples;Min_cycle;Max_cycle;Signal;HPM_P1;HPM_P2
2022/09/12 00:02:36;;;;;;;1.17;1.10;;;;;;;;;;12548294;28;20049;-75
2022/09/12 00:08:38;;;;;;;1.60;1.02;;;;;;;;;;12547861;28;20140;-75
2022/09/12 00:14:40;;;;;;;1.55;1.45;;;;;;;;;;12529534;28;20041;-75
2022/09/12 00:20:42;;;;;;;2.25;1.10;;;;;;;;;;12546902;28;20059;-75
2022/09/12 00:26:44;;;;;;;1.00;1.00;;;;;;;;;;12529396;28;20033;-75
2022/09/12 00:32:46;;;;;;;0.98;0.90;;;;;;;;;;12529645;28;20040;-75
2022/09/12 00:38:48;;;;;;;1.90;1.80;;;;;;;;;;12546445;28;20029;-75
2022/09/12 00:44:50;;;;;;;;;;;;;;;;;;12528465;28;20056;-75
2022/09/12 00:50:51;;;;;;;1.50;1.40;;;;;;;;;;12545687;28;19908;-75
2022/09/12 00:56:55;;;;;;;1.42;1.33;;;;;;;;;;12545661;28;20036;-74
2022/09/12 01:03:05;;;;;;;0.90;0.90;;;;;;;;;;12545109;28;20049;-74
2022/09/12 01:09:07;;;;;;;1.13;0.95;;;;;;;;;;12544886;28;20088;-74
2022/09/12 01:15:10;;;;;;;0.90;0.90;;;;;;;;;;12527354;28;20060;-74
2022/09/12 01:21:20;;;;;;;1.10;1.00;;;;;;;;;;12510306;28;20415;-74
2022/09/12 01:27:33;;;;;;;0.55;0.55;;;;;;;;;;12544254;28;20040;-74
2022/09/12 01:33:44;;;;;;;0.60;0.60;;;;;;;;;;12544136;28;20390;-74
2022/09/12 01:40:04;;;;;;;0.50;0.50;;;;;;;;;;12526669;28;20033;-74
2022/09/12 01:46:10;;;;;;;0.50;0.50;;;;;;;;;;12556791;28;20045;-75
2022/09/12 01:52:15;;;;;;;0.47;0.40;;;;;;;;;;12550254;28;20037;-74
2022/09/12 01:58:26;;;;;;;0.50;0.50;;;;;;;;;;12544307;28;20040;-74
2022/09/12 02:04:35;;;;;;;0.60;0.60;;;;;;;;;;12525605;28;20498;-74
2022/09/12 02:10:52;;;;;;;0.68;0.50;;;;;;;;;;12543216;28;20056;-74
2022/09/12 02:16:53;;;;;;;1.20;0.57;;;;;;;;;;12525498;28;20048;-74
2022/09/12 02:22:56;;;;;;;0.70;0.70;;;;;;;;;;12543252;28;20052;-75
2022/09/12 02:28:59;;;;;;;0.60;0.60;;;;;;;;;;12544018;28;20645;-74
2022/09/12 02:35:01;;;;;;;0.45;0.45;;;;;;;;;;12524944;28;20037;-74
2022/09/12 02:41:02;;;;;;;1.92;0.60;;;;;;;;;;12528995;28;20049;-74
2022/09/12 02:47:07;;;;;;;0.45;0.43;;;;;;;;;;12533971;28;20044;-74
2022/09/12 02:53:09;;;;;;;0.43;0.43;;;;;;;;;;12551509;28;20037;-74
2022/09/12 02:59:16;;;;;;;0.52;0.40;;;;;;;;;;12550944;28;20032;-74
2022/09/12 03:05:31;;;;;;;0.35;0.32;;;;;;;;;;12551111;28;20044;-74
2022/09/12 03:11:33;;;;;;;0.50;0.50;;;;;;;;;;12516363;28;20498;-74
2022/09/12 03:17:46;;;;;;;0.40;0.40;;;;;;;;;;12532713;28;20509;-74
2022/09/12 03:23:51;;;;;;;0.70;0.45;;;;;;;;;;12549965;28;20398;-74
2022/09/12 03:29:53;;;;;;;0.85;0.55;;;;;;;;;;12550628;28;20029;-74
2022/09/12 03:35:55;;;;;;;0.35;0.35;;;;;;;;;;12531810;28;20394;-75
2022/09/12 03:41:57;;;;;;;0.47;0.30;;;;;;;;;;12531775;28;20045;-74
2022/09/12 03:47:59;;;;;;;0.47;0.47;;;;;;;;;;12515345;28;20037;-74
2022/09/12 03:54:00;;;;;;;0.60;0.60;;;;;;;;;;12530082;28;20033;-74
2022/09/12 04:00:03;;;;;;;0.63;0.50;;;;;;;;;;12548307;28;20033;-74
2022/09/12 04:06:34;;;;;;;0.40;0.40;;;;;;;;;;12547563;28;20045;-75
2022/09/12 04:12:36;;;;;;;0.40;0.40;;;;;;;;;;12529656;28;20075;-75
2022/09/12 04:18:38;;;;;;;1.13;0.45;;;;;;;;;;12529704;28;20033;-75
2022/09/12 04:24:39;;;;;;;0.40;0.40;;;;;;;;;;12555419;28;20047;-75
2022/09/12 04:30:41;;;;;;;0.47;0.47;;;;;;;;;;12513435;28;20037;-75
2022/09/12 04:37:03;;;;;;;0.33;0.33;;;;;;;;;;12546900;28;20036;-75
2022/09/12 04:43:05;;;;;;;0.97;0.70;;;;;;;;;;12545886;28;20471;-75
2022/09/12 04:49:07;;;;;;;0.40;0.40;;;;;;;;;;12529017;28;20435;-75
2022/09/12 04:55:09;;;;;;;1.25;0.70;;;;;;;;;;12511763;28;20033;-75
2022/09/12 05:01:13;;;;;;;0.65;0.50;;;;;;;;;;12527668;28;20041;-75
2022/09/12 05:07:14;;;;;;;0.73;0.50;;;;;;;;;;12526370;28;20032;-75
2022/09/12 05:13:16;;;;;;;1.25;0.60;;;;;;;;;;12544867;28;20049;-75
2022/09/12 05:19:18;;;;;;;0.87;0.60;;;;;;;;;;12510266;28;20036;-75
2022/09/12 05:25:20;;;;;;;0.53;0.53;;;;;;;;;;12526416;28;20055;-75
2022/09/12 05:31:23;;;;;;;0.70;0.70;;;;;;;;;;12510214;28;20048;-75
2022/09/12 05:37:24;;;;;;;0.60;0.60;;;;;;;;;;12543929;28;20029;-74
2022/09/12 05:43:26;;;;;;;1.00;0.60;;;;;;;;;;12503335;28;20490;-75
2022/09/12 05:49:29;;;;;;;;;;;;;;;;;;12483840;28;20299;-75
2022/09/12 05:55:30;;;;;;;0.70;0.70;;;;;;;;;;12516262;28;19959;-75
2022/09/12 06:01:33;;;;;;;0.80;0.80;;;;;;;;;;12514559;28;20056;-75
2022/09/12 06:07:34;;;;;;;0.73;0.70;;;;;;;;;;12500255;28;20033;-75
2022/09/12 06:13:38;;;;;;;1.30;0.98;;;;;;;;;;12498627;28;20466;-74
2022/09/12 06:19:40;;;;;;;1.48;1.10;;;;;;;;;;12514816;28;20033;-74
2022/09/12 06:25:46;;;;;;;2.15;1.92;;;;;;;;;;12494227;28;20053;-74
2022/09/12 06:31:48;;;;;;;2.00;1.40;;;;;;;;;;12511547;28;20330;-74
2022/09/12 06:37:50;;;;;;;1.20;1.10;;;;;;;;;;12507959;28;20030;-73
2022/09/12 06:43:51;;;;;;;1.27;1.08;;;;;;;;;;12508637;28;20034;-73
2022/09/12 06:49:53;;;;;;;0.77;0.70;;;;;;;;;;12483121;28;20056;-73
2022/09/12 06:56:02;;;;;;;0.80;0.80;;;;;;;;;;12506194;28;20380;-73
2022/09/12 07:02:04;;;;;;;1.00;0.65;;;;;;;;;;12514255;28;20049;-74
2022/09/12 07:08:05;;;;;;;1.23;0.50;;;;;;;;;;12524278;28;20025;-73
2022/09/12 07:14:09;;;;;;;0.43;0.43;;;;;;;;;;12501149;28;20526;-73
2022/09/12 07:20:11;;;;;;;0.77;0.60;;;;;;;;;;12514510;28;20450;-73
2022/09/12 07:26:13;;;;;;;0.40;0.40;;;;;;;;;;12527417;28;20037;-73
2022/09/12 07:32:15;;;;;;;0.80;0.50;;;;;;;;;;12483281;28;20057;-73
2022/09/12 07:38:17;;;;;;;0.45;0.40;;;;;;;;;;12514198;28;20033;-73
2022/09/12 07:44:20;;;;;;;0.88;0.40;;;;;;;;;;12510198;28;20045;-74
2022/09/12 07:50:22;;;;;;;0.30;0.30;;;;;;;;;;12525106;28;20029;-74
2022/09/12 07:56:24;;;;;;;;;;;;;;;;;;12515498;28;20372;-74
2022/09/12 08:02:26;;;;;;;0.20;0.10;;;;;;;;;;12503560;28;19923;-73
2022/09/12 08:08:28;;;;;;;0.30;0.30;;;;;;;;;;12505336;28;20036;-75
2022/09/12 08:14:29;;;;;;;0.50;0.20;;;;;;;;;;12493901;28;20029;-74
2022/09/12 08:20:31;;;;;;;0.20;0.13;;;;;;;;;;12543460;28;20028;-74
2022/09/12 08:26:34;;;;;;;2.20;0.38;;;;;;;;;;12501786;28;20491;-75
2022/09/12 08:32:36;;;;;;;1.08;0.32;;;;;;;;;;12498791;28;20565;-73
2022/09/12 08:38:39;;;;;;;0.45;0.30;;;;;;;;;;12506942;28;20028;-75
2022/09/12 08:45:00;;;;;;;0.63;0.20;;;;;;;;;;12503084;28;20045;-74
2022/09/12 08:51:03;;;;;;;0.63;0.20;;;;;;;;;;12518995;28;20033;-74
2022/09/12 08:57:08;;;;;;;1.88;0.30;;;;;;;;;;12488414;28;20049;-73
2022/09/12 09:03:10;;;;;;;0.75;0.25;;;;;;;;;;12509961;28;20045;-72
2022/09/12 09:09:15;;;;;;;0.50;0.20;;;;;;;;;;12491015;28;20040;-74
2022/09/12 09:15:28;;;;;;;0.70;0.20;;;;;;;;;;12483030;28;20038;-74
2022/09/12 09:21:37;;;;;;;0.75;0.20;;;;;;;;;;12502655;28;20033;-75
2022/09/12 09:27:45;;;;;;;0.38;0.30;;;;;;;;;;12493584;28;20056;-74
2022/09/12 09:33:50;;;;;;;0.73;0.20;;;;;;;;;;12528380;28;20060;-74
2022/09/12 09:39:52;;;;;;;0.57;0.22;;;;;;;;;;12529548;28;20052;-76
2022/09/12 09:45:55;;;;;;;0.15;0.10;;;;;;;;;;12486107;28;20041;-75
2022/09/12 09:51:59;;;;;;;0.43;0.30;;;;;;;;;;12478175;28;20033;-77
2022/09/12 09:58:02;;;;;;;0.40;0.20;;;;;;;;;;12520604;28;20044;-76
2022/09/12 10:04:03;;;;;;;0.28;0.25;;;;;;;;;;12497400;28;20045;-75
2022/09/12 10:10:05;;;;;;;;;;;;;;;;;;12503838;28;20053;-78
2022/09/12 10:16:18;;;;;;;0.20;0.20;;;;;;;;;;12510427;28;20414;-75
2022/09/12 10:22:22;;;;;;;0.25;0.15;;;;;;;;;;12475707;28;20045;-75
2022/09/12 10:28:42;;;;;;;0.28;0.20;;;;;;;;;;12491726;28;20031;-74
2022/09/12 10:34:45;;;;;;;0.65;0.13;;;;;;;;;;12509917;28;20037;-75
2022/09/12 10:40:54;;;;;;;0.70;0.20;;;;;;;;;;12476519;28;20391;-76
2022/09/12 10:46:57;;;;;;;0.38;0.30;;;;;;;;;;12491537;28;20048;-75
2022/09/12 10:53:17;;;;;;;0.10;0.10;;;;;;;;;;12475456;28;20033;-75
2022/09/12 10:59:27;;;;;;;0.93;0.20;;;;;;;;;;12510341;28;20022;-74
2022/09/12 11:05:36;;;;;;;0.15;0.15;;;;;;;;;;12484050;28;20041;-75
2022/09/12 11:11:41;;;;;;;0.88;0.17;;;;;;;;;;12483238;28;20513;-76
2022/09/12 11:18:00;;;;;;;0.13;0.10;;;;;;;;;;12482969;28;20041;-75
2022/09/12 11:24:02;;;;;;;0.30;0.00;;;;;;;;;;12500147;28;20033;-75
2022/09/12 11:30:05;;;;;;;;;;;;;;;;;;12500517;28;20033;-74
2022/09/12 11:36:09;;;;;;;0.57;0.15;;;;;;;;;;12499935;28;19909;-75
2022/09/12 11:42:15;;;;;;;0.10;0.10;;;;;;;;;;12500233;28;20041;-74
2022/09/12 11:48:36;;;;;;;0.45;0.10;;;;;;;;;;12465526;28;20045;-74
2022/09/12 11:54:48;;;;;;;0.25;0.17;;;;;;;;;;12498961;28;20030;-75
2022/09/12 12:00:49;;;;;;;;;;;;;;;;;;12481167;28;20395;-74
2022/09/12 12:07:02;;;;;;;0.13;0.10;;;;;;;;;;12498600;28;20283;-74
2022/09/12 12:13:26;;;;;;;0.10;0.10;;;;;;;;;;12480762;28;20402;-74
2022/09/12 12:19:32;;;;;;;0.55;0.20;;;;;;;;;;12504106;28;20052;-74
2022/09/12 12:25:38;;;;;;;0.20;0.10;;;;;;;;;;12592684;28;20046;-75
2022/09/12 12:31:59;;;;;;;0.08;0.08;;;;;;;;;;12551107;28;20489;-75
2022/09/12 12:38:01;;;;;;;0.23;0.17;;;;;;;;;;12504430;28;20025;-75
2022/09/12 12:44:23;;;;;;;0.17;0.17;;;;;;;;;;12523771;28;20037;-75
2022/09/12 12:50:26;;;;;;;2.00;1.05;;;;;;;;;;12478432;28;20040;-75
2022/09/12 12:56:39;;;;;;;0.30;0.20;;;;;;;;;;12507036;28;20052;-75
2022/09/12 13:02:51;;;;;;;0.20;0.17;;;;;;;;;;12517668;28;20041;-75
2022/09/12 13:09:03;;;;;;;0.15;0.10;;;;;;;;;;12543220;28;20037;-75
2022/09/12 13:15:25;;;;;;;0.43;0.17;;;;;;;;;;12528796;28;20052;-74
2022/09/12 13:21:27;;;;;;;0.10;0.10;;;;;;;;;;12493473;28;20068;-75
2022/09/12 13:27:29;;;;;;;0.25;0.20;;;;;;;;;;12511331;28;20386;-74
2022/09/12 13:33:34;;;;;;;0.30;0.10;;;;;;;;;;12488701;28;20035;-75
2022/09/12 13:39:54;;;;;;;0.00;0.00;;;;;;;;;;12504263;28;20029;-73
2022/09/12 13:45:56;;;;;;;0.20;0.17;;;;;;;;;;12507564;28;20045;-74
2022/09/12 13:52:02;;;;;;;0.20;0.10;;;;;;;;;;12499651;28;20391;-72
2022/09/12 13:58:05;;;;;;;0.25;0.15;;;;;;;;;;12483297;28;20041;-73
2022/09/12 14:10:38;;;;;;;0.28;0.10;;;;;;;;;;12463184;28;20116;-74
2022/09/12 14:16:40;;;;;;;0.10;0.10;;;;;;;;;;12472538;28;20391;-73
2022/09/12 14:22:42;;;;;;;0.40;0.10;;;;;;;;;;12462114;28;20045;-74
2022/09/12 14:28:46;;;;;;;0.20;0.10;;;;;;;;;;12458041;28;20029;-75
2022/09/12 14:35:05;;;;;;;0.88;0.20;;;;;;;;;;12457389;28;20033;-75
2022/09/12 14:41:12;;;;;;;0.93;0.13;;;;;;;;;;12469041;28;20042;-73
2022/09/12 14:47:18;;;;;;;0.30;0.10;;;;;;;;;;12475802;28;20046;-74
2022/09/12 14:53:22;;;;;;;0.17;0.15;;;;;;;;;;12475159;28;20040;-74
2022/09/12 14:59:30;;;;;;;0.10;0.10;;;;;;;;;;12464494;28;20029;-74
2022/09/12 15:05:32;;;;;;;0.38;0.10;;;;;;;;;;12489131;28;20244;-75
2022/09/12 15:11:34;;;;;;;0.10;0.10;;;;;;;;;;12502179;28;20044;-75
2022/09/12 15:17:36;;;;;;;0.10;0.10;;;;;;;;;;12502891;28;20479;-75
2022/09/12 15:23:42;;;;;;;0.85;0.05;;;;;;;;;;12500217;28;20045;-75
2022/09/12 15:29:44;;;;;;;1.38;0.13;;;;;;;;;;12482293;28;20025;-74
2022/09/12 15:35:46;;;;;;;0.75;0.10;;;;;;;;;;12500197;28;20184;-75
2022/09/12 15:41:48;;;;;;;0.45;0.10;;;;;;;;;;12501036;28;20048;-75
2022/09/12 15:47:50;;;;;;;0.10;0.10;;;;;;;;;;12480995;28;20045;-75
2022/09/12 15:53:52;;;;;;;0.40;0.20;;;;;;;;;;12482160;28;20499;-75
2022/09/12 15:59:53;;;;;;;1.30;0.10;;;;;;;;;;12498947;28;20042;-75
2022/09/12 16:05:56;;;;;;;0.43;0.13;;;;;;;;;;12498547;28;20491;-75
2022/09/12 16:11:58;;;;;;;0.60;0.40;;;;;;;;;;12498169;28;20065;-75
2022/09/12 16:18:00;;;;;;;0.60;0.15;;;;;;;;;;12480367;28;20041;-75
2022/09/12 16:24:02;;;;;;;0.43;0.17;;;;;;;;;;12497960;28;20052;-75
2022/09/12 16:30:04;;;;;;;0.82;0.13;;;;;;;;;;12498408;28;20041;-75
2022/09/12 16:36:06;;;;;;;0.20;0.10;;;;;;;;;;12497258;28;20033;-75
2022/09/12 16:42:08;;;;;;;0.10;0.10;;;;;;;;;;12498036;28;20041;-76
2022/09/12 16:48:10;;;;;;;0.17;0.10;;;;;;;;;;12479090;28;20033;-74
2022/09/12 16:54:11;;;;;;;0.32;0.17;;;;;;;;;;12497116;28;20033;-75
2022/09/12 17:00:13;;;;;;;1.02;0.10;;;;;;;;;;12495989;28;20029;-75
2022/09/12 17:06:17;;;;;;;0.25;0.10;;;;;;;;;;12461864;28;20048;-75
2022/09/12 17:12:18;;;;;;;0.38;0.10;;;;;;;;;;12495371;28;20052;-74
2022/09/12 17:18:20;;;;;;;0.13;0.13;;;;;;;;;;12495058;28;20487;-74
2022/09/12 17:24:22;;;;;;;0.20;0.10;;;;;;;;;;12477767;28;20045;-74
2022/09/12 17:30:24;;;;;;;0.10;0.10;;;;;;;;;;12494962;28;20044;-74
2022/09/12 17:36:26;;;;;;;1.85;0.20;;;;;;;;;;12494733;28;20518;-74
2022/09/12 17:42:28;;;;;;;0.10;0.10;;;;;;;;;;12531916;28;20048;-74
2022/09/12 17:48:30;;;;;;;0.10;0.10;;;;;;;;;;12479051;28;20380;-75
2022/09/12 17:54:32;;;;;;;0.20;0.10;;;;;;;;;;12477688;28;20029;-75
2022/09/12 18:06:56;;;;;;;0.00;0.00;;;;;;;;;;12494349;28;20046;-76
2022/09/12 18:12:58;;;;;;;0.20;0.20;;;;;;;;;;12499303;28;20045;-76
2022/09/12 18:19:02;;;;;;;0.25;0.10;;;;;;;;;;12503547;28;20037;-75
2022/09/12 18:25:04;;;;;;;0.20;0.20;;;;;;;;;;12504663;28;20044;-74
2022/09/12 18:31:06;;;;;;;;;;;;;;;;;;12486440;28;20060;-74
2022/09/12 18:37:08;;;;;;;0.20;0.10;;;;;;;;;;12502766;28;19912;-74
2022/09/12 18:43:09;;;;;;;0.50;0.20;;;;;;;;;;12485842;28;20037;-74
2022/09/12 18:49:12;;;;;;;1.58;0.22;;;;;;;;;;12484527;28;20033;-74
2022/09/12 18:55:13;;;;;;;0.40;0.10;;;;;;;;;;12501900;28;20033;-74
2022/09/12 19:01:17;;;;;;;0.50;0.20;;;;;;;;;;12484568;28;20045;-74
2022/09/12 19:07:18;;;;;;;0.10;0.10;;;;;;;;;;12483671;28;20041;-74
2022/09/12 19:13:20;;;;;;;0.30;0.30;;;;;;;;;;12501096;28;20041;-75
2022/09/12 19:19:22;;;;;;;0.20;0.17;;;;;;;;;;12500496;28;20060;-75
2022/09/12 19:25:23;;;;;;;;;;;;;;;;;;12481914;28;20403;-75
2022/09/12 19:31:26;;;;;;;0.60;0.30;;;;;;;;;;12500368;28;20268;-75
2022/09/12 19:37:28;;;;;;;0.30;0.30;;;;;;;;;;12500680;28;20032;-75
2022/09/12 19:43:31;;;;;;;0.32;0.30;;;;;;;;;;12501059;28;20049;-75
2022/09/12 19:49:32;;;;;;;0.30;0.30;;;;;;;;;;12499290;28;20142;-75
2022/09/12 19:55:35;;;;;;;0.38;0.38;;;;;;;;;;12499647;28;20380;-75
2022/09/12 20:01:37;;;;;;;0.60;0.30;;;;;;;;;;12499142;28;20037;-76
2022/09/12 20:07:38;;;;;;;;;;;;;;;;;;12465271;28;20053;-76
2022/09/12 20:13:41;;;;;;;1.30;0.40;;;;;;;;;;12481108;28;19924;-75
2022/09/12 20:19:44;;;;;;;0.38;0.38;;;;;;;;;;12509172;28;20045;-75
2022/09/12 20:25:47;;;;;;;0.40;0.40;;;;;;;;;;12482939;28;20053;-76
2022/09/12 20:31:49;;;;;;;0.57;0.40;;;;;;;;;;12497641;28;20490;-75
2022/09/12 20:37:51;;;;;;;0.40;0.40;;;;;;;;;;12479170;28;20033;-76
2022/09/12 20:43:54;;;;;;;0.50;0.50;;;;;;;;;;12497176;28;20053;-75
2022/09/12 20:49:56;;;;;;;0.50;0.50;;;;;;;;;;12479044;28;20048;-75
2022/09/12 20:55:57;;;;;;;0.40;0.40;;;;;;;;;;12479289;28;20222;-75
2022/09/12 21:02:00;;;;;;;0.40;0.38;;;;;;;;;;12479780;28;20037;-76
2022/09/12 21:08:02;;;;;;;0.50;0.40;;;;;;;;;;12478590;28;20045;-75
2022/09/12 21:14:04;;;;;;;0.47;0.40;;;;;;;;;;12496716;28;20053;-75
2022/09/12 21:20:05;;;;;;;0.40;0.30;;;;;;;;;;12478165;28;20052;-75
2022/09/12 21:26:08;;;;;;;1.23;0.65;;;;;;;;;;12477906;28;20041;-75
2022/09/12 21:32:10;;;;;;;0.88;0.60;;;;;;;;;;12477925;28;20041;-75
2022/09/12 21:38:12;;;;;;;0.40;0.40;;;;;;;;;;12460717;28;20043;-75
2022/09/12 21:44:14;;;;;;;1.08;0.47;;;;;;;;;;12494835;28;20061;-75
2022/09/12 21:50:15;;;;;;;1.13;0.60;;;;;;;;;;12459977;28;20390;-75
2022/09/12 21:56:17;;;;;;;0.60;0.60;;;;;;;;;;12476947;28;20506;-76
2022/09/12 22:02:21;;;;;;;1.13;0.68;;;;;;;;;;12460446;28;20403;-74
2022/09/12 22:08:23;;;;;;;0.68;0.68;;;;;;;;;;12493902;28;20060;-74
2022/09/12 22:14:25;;;;;;;0.45;0.45;;;;;;;;;;12477013;28;20483;-74
2022/09/12 22:20:27;;;;;;;0.60;0.60;;;;;;;;;;12477048;28;20040;-74
2022/09/12 22:26:33;;;;;;;1.17;0.65;;;;;;;;;;12493742;28;20041;-74
2022/09/12 22:32:38;;;;;;;0.93;0.70;;;;;;;;;;12476230;28;20045;-75
2022/09/12 22:38:40;;;;;;;1.08;0.50;;;;;;;;;;12476191;28;20379;-74
2022/09/12 22:44:42;;;;;;;0.70;0.60;;;;;;;;;;12493733;28;20491;-75
2022/09/12 22:50:44;;;;;;;1.27;0.70;;;;;;;;;;12475827;28;20033;-74
2022/09/12 22:56:46;;;;;;;;;;;;;;;;;;12496113;28;20029;-75
2022/09/12 23:02:48;;;;;;;1.07;0.70;;;;;;;;;;12521188;28;20064;-76
2022/09/12 23:08:49;;;;;;;0.60;0.60;;;;;;;;;;12484184;28;20050;-75
2022/09/12 23:14:51;;;;;;;0.75;0.68;;;;;;;;;;12501694;28;20033;-74
2022/09/12 23:20:58;;;;;;;0.60;0.60;;;;;;;;;;12501156;28;20029;-75
2022/09/12 23:27:00;;;;;;;0.75;0.75;;;;;;;;;;12501628;28;20292;-74
2022/09/12 23:33:01;;;;;;;0.60;0.60;;;;;;;;;;12500710;28;20402;-74
2022/09/12 23:39:04;;;;;;;;;;;;;;;;;;12501308;28;20089;-75
2022/09/12 23:45:05;;;;;;;0.60;0.60;;;;;;;;;;12501509;28;19921;-74
2022/09/12 23:51:07;;;;;;;0.57;0.57;;;;;;;;;;12500316;28;20037;-75
2022/09/12 23:57:09;;;;;;;1.50;0.77;;;;;;;;;;12481809;28;20033;-74
